createdAt,value
2022-12-26T00:00:25.060Z,19.55
2022-12-26T00:02:51.888Z,17.75
2022-12-26T00:05:18.632Z,18.77
2022-12-26T00:07:45.886Z,20.40
2022-12-26T00:10:12.717Z,19.95
2022-12-26T00:12:39.353Z,19.90
2022-12-26T00:15:06.286Z,20.25
2022-12-26T00:17:32.993Z,23.00
2022-12-26T00:19:59.704Z,18.65
2022-12-26T00:22:26.472Z,19.25
2022-12-26T00:24:53.112Z,24.08
2022-12-26T00:27:19.817Z,22.20
2022-12-26T00:29:47.944Z,20.23
2022-12-26T00:32:14.700Z,20.65
2022-12-26T00:34:41.433Z,19.42
2022-12-26T00:37:08.233Z,20.95
2022-12-26T00:39:34.875Z,19.63
2022-12-26T00:42:01.618Z,21.40
2022-12-26T00:44:28.273Z,21.60
2022-12-26T00:46:55.197Z,21.65
2022-12-26T00:49:21.915Z,22.52
2022-12-26T00:51:48.579Z,20.67
2022-12-26T00:54:15.258Z,23.55
2022-12-26T00:56:41.908Z,23.95
2022-12-26T00:59:08.572Z,23.42
2022-12-26T01:01:35.365Z,24.25
2022-12-26T01:04:02.279Z,25.23
2022-12-26T01:06:28.952Z,22.73
2022-12-26T01:08:55.665Z,25.92
2022-12-26T01:11:41.020Z,22.90
2022-12-26T01:14:15.947Z,22.27
2022-12-26T01:16:44.182Z,20.75
2022-12-26T01:19:12.163Z,18.80
2022-12-26T01:21:39.285Z,20.58
2022-12-26T01:24:06.587Z,21.20
2022-12-26T01:26:33.246Z,17.98
2022-12-26T01:28:59.898Z,19.88
2022-12-26T01:31:26.692Z,20.48
2022-12-26T01:33:53.453Z,20.38
2022-12-26T01:36:20.182Z,20.33
2022-12-26T01:38:46.819Z,18.92
2022-12-26T01:41:22.520Z,22.55
2022-12-26T01:44:04.599Z,18.75
2022-12-26T01:46:40.006Z,18.85
2022-12-26T01:49:15.864Z,18.77
2022-12-26T01:51:46.289Z,17.83
2022-12-26T01:54:41.135Z,16.42
2022-12-26T01:57:02.623Z,13.85
2022-12-26T01:59:31.154Z,13.50
2022-12-26T02:01:59.055Z,13.77
2022-12-26T02:04:48.493Z,15.10
2022-12-26T02:07:15.177Z,13.40
2022-12-26T02:09:42.092Z,14.93
2022-12-26T02:12:35.550Z,13.95
2022-12-26T02:15:06.834Z,15.13
2022-12-26T02:17:33.517Z,13.05
2022-12-26T02:20:10.328Z,14.27
2022-12-26T02:23:04.967Z,12.38
2022-12-26T02:25:31.624Z,12.93
2022-12-26T02:28:46.637Z,13.40
2022-12-26T02:31:20.839Z,12.30
2022-12-26T02:34:10.315Z,13.40
2022-12-26T02:36:55.752Z,12.40
2022-12-26T02:39:45.744Z,14.02
2022-12-26T02:42:19.066Z,15.32
2022-12-26T02:45:11.910Z,14.73
2022-12-26T02:47:50.428Z,15.00
2022-12-26T02:51:16.757Z,15.98
2022-12-26T02:54:31.565Z,37.55
2022-12-26T02:57:22.781Z,21.95
2022-12-26T03:00:21.916Z,22.90
2022-12-26T03:03:41.242Z,23.55
2022-12-26T03:06:34.992Z,23.58
2022-12-26T03:09:55.654Z,18.67
2022-12-26T03:12:51.201Z,21.95
2022-12-26T03:15:19.522Z,18.45
2022-12-26T03:18:01.016Z,18.67
2022-12-26T03:20:31.941Z,18.75
2022-12-26T03:23:10.476Z,18.77
2022-12-26T03:26:03.647Z,18.00
2022-12-26T03:28:30.486Z,19.02
2022-12-26T03:31:00.306Z,18.83
2022-12-26T03:33:54.376Z,18.40
2022-12-26T03:36:20.977Z,17.50
2022-12-26T03:39:10.427Z,20.10
2022-12-26T03:42:02.999Z,19.42
2022-12-26T03:45:09.594Z,20.23
2022-12-26T03:48:03.922Z,20.30
2022-12-26T03:50:53.726Z,21.25
2022-12-26T03:53:42.503Z,20.35
2022-12-26T03:56:38.499Z,23.55
2022-12-26T03:59:27.470Z,21.40
2022-12-26T04:02:14.665Z,20.60
2022-12-26T04:05:02.835Z,18.27
2022-12-26T04:07:56.782Z,20.45
2022-12-26T04:11:02.382Z,20.17
2022-12-26T04:14:10.992Z,20.02
2022-12-26T04:17:08.118Z,18.92
2022-12-26T04:20:01.308Z,19.70
2022-12-26T04:23:06.471Z,19.27
2022-12-26T04:26:16.816Z,20.63
2022-12-26T04:29:02.329Z,19.58
2022-12-26T04:31:57.208Z,17.90
2022-12-26T04:34:51.126Z,19.50
2022-12-26T04:37:42.897Z,20.15
2022-12-26T04:40:33.200Z,17.35
2022-12-26T04:43:49.319Z,17.30
2022-12-26T04:46:06.058Z,18.17
2022-12-26T04:48:52.303Z,17.65
2022-12-26T04:51:18.986Z,19.63
2022-12-26T04:53:46.519Z,20.52
2022-12-26T04:56:14.097Z,19.88
2022-12-26T04:58:40.721Z,20.45
2022-12-26T05:01:26.252Z,22.35
2022-12-26T05:04:11.633Z,21.50
2022-12-26T05:06:56.884Z,22.38
2022-12-26T05:09:35.812Z,21.30
2022-12-26T05:12:04.975Z,21.92
2022-12-26T05:14:32.104Z,21.92
2022-12-26T05:17:18.180Z,21.98
2022-12-26T05:20:03.937Z,22.20
2022-12-26T05:22:51.383Z,22.15
2022-12-26T05:25:39.719Z,20.67
2022-12-26T05:28:28.826Z,21.05
2022-12-26T05:30:55.621Z,19.95
2022-12-26T05:33:40.875Z,21.02
2022-12-26T05:36:08.727Z,21.88
2022-12-26T05:38:36.273Z,20.90
2022-12-26T05:41:03.489Z,22.35
2022-12-26T05:43:30.289Z,22.65
2022-12-26T05:45:56.981Z,23.67
2022-12-26T05:48:23.721Z,25.40
2022-12-26T05:50:50.408Z,24.77
2022-12-26T05:53:17.100Z,23.40
2022-12-26T05:55:43.915Z,22.95
2022-12-26T05:58:10.635Z,23.70
2022-12-26T06:00:37.326Z,25.90
2022-12-26T06:03:04.276Z,24.60
2022-12-26T06:05:31.034Z,21.67
2022-12-26T06:07:57.740Z,21.60
2022-12-26T06:10:27.115Z,21.08
2022-12-26T06:12:53.815Z,18.02
2022-12-26T06:15:20.483Z,21.73
2022-12-26T06:17:47.216Z,21.65
2022-12-26T06:20:13.902Z,20.23
2022-12-26T06:22:40.634Z,21.48
2022-12-26T06:25:08.025Z,18.70
2022-12-26T06:27:34.720Z,20.92
2022-12-26T06:30:01.472Z,19.80
2022-12-26T06:32:28.237Z,19.70
2022-12-26T06:34:54.991Z,19.50
2022-12-26T06:37:21.820Z,20.00
2022-12-26T06:39:48.453Z,21.10
2022-12-26T06:42:15.139Z,22.00
2022-12-26T06:44:41.954Z,20.45
2022-12-26T06:47:08.687Z,32.22
2022-12-26T06:49:35.416Z,23.20
2022-12-26T06:52:02.168Z,21.95
2022-12-26T06:54:28.956Z,21.20
2022-12-26T06:56:55.674Z,25.30
2022-12-26T06:59:22.445Z,18.20
2022-12-26T07:01:49.595Z,17.35
2022-12-26T07:04:16.395Z,17.27
2022-12-26T07:06:43.106Z,17.58
2022-12-26T07:09:15.142Z,17.15
2022-12-26T07:11:44.007Z,14.43
2022-12-26T07:14:10.897Z,15.05
2022-12-26T07:16:39.198Z,16.35
2022-12-26T07:19:06.553Z,14.43
2022-12-26T07:21:40.186Z,14.55
2022-12-26T07:24:10.473Z,11.77
2022-12-26T07:26:37.217Z,12.95
2022-12-26T07:29:03.908Z,20.70
2022-12-26T07:31:30.895Z,19.42
2022-12-26T07:33:57.668Z,29.00
2022-12-26T07:36:25.341Z,38.45
2022-12-26T07:38:52.497Z,47.80
2022-12-26T07:41:38.532Z,48.60
2022-12-26T07:44:06.230Z,50.78
2022-12-26T07:46:33.741Z,55.20
2022-12-26T07:49:00.475Z,56.92
2022-12-26T07:51:27.703Z,55.15
2022-12-26T07:53:54.473Z,62.90
2022-12-26T07:56:21.205Z,56.17
2022-12-26T07:58:51.587Z,61.53
2022-12-26T08:01:19.110Z,58.85
2022-12-26T08:03:48.883Z,57.50
2022-12-26T08:06:16.184Z,62.67
2022-12-26T08:08:48.463Z,64.60
2022-12-26T08:11:19.263Z,64.95
2022-12-26T08:13:46.415Z,55.97
2022-12-26T08:16:14.919Z,61.97
2022-12-26T08:18:42.070Z,70.47
2022-12-26T08:21:09.118Z,43.90
2022-12-26T08:23:35.861Z,48.10
2022-12-26T08:26:10.997Z,41.65
2022-12-26T08:28:38.516Z,45.95
2022-12-26T08:31:07.236Z,45.90
2022-12-26T08:33:34.246Z,46.95
2022-12-26T08:36:08.681Z,52.10
2022-12-26T08:38:35.769Z,54.13
2022-12-26T08:41:02.724Z,61.17
2022-12-26T08:43:52.792Z,56.88
2022-12-26T08:46:17.061Z,176.15
2022-12-26T08:48:44.328Z,59.90
2022-12-26T08:51:19.360Z,55.47
2022-12-26T08:53:46.897Z,55.72
2022-12-26T08:56:16.570Z,59.45
2022-12-26T08:58:43.958Z,49.78
2022-12-26T09:01:19.886Z,47.90
2022-12-26T09:03:47.764Z,47.78
2022-12-26T09:06:15.914Z,47.45
2022-12-26T09:08:43.205Z,44.88
2022-12-26T09:11:12.451Z,40.15
2022-12-26T09:16:17.074Z,37.90
2022-12-26T09:18:44.727Z,40.35
2022-12-26T09:21:12.890Z,42.53
2022-12-26T09:23:40.564Z,31.95
2022-12-26T09:26:12.117Z,29.55
2022-12-26T09:28:39.291Z,27.65
2022-12-26T09:31:10.822Z,25.42
2022-12-26T09:33:38.627Z,22.35
2022-12-26T09:36:14.513Z,25.85
2022-12-26T09:38:42.946Z,16.95
2022-12-26T09:41:37.375Z,14.88
2022-12-26T09:44:17.867Z,13.45
2022-12-26T09:47:08.485Z,10.95
2022-12-26T09:49:38.819Z,11.32
2022-12-26T09:52:11.981Z,9.82
2022-12-26T09:54:45.468Z,10.45
2022-12-26T09:57:20.574Z,10.18
2022-12-26T09:59:54.814Z,10.02
2022-12-26T10:02:24.090Z,9.15
2022-12-26T10:04:52.004Z,9.10
2022-12-26T10:07:21.341Z,10.32
2022-12-26T10:10:04.273Z,10.55
2022-12-26T10:12:42.554Z,11.65
2022-12-26T10:15:36.934Z,10.20
2022-12-26T10:18:29.716Z,11.23
2022-12-26T10:20:59.401Z,12.57
2022-12-26T10:23:39.739Z,14.00
2022-12-26T10:26:30.846Z,14.13
2022-12-26T10:29:09.661Z,13.80
2022-12-26T10:31:50.879Z,14.35
2022-12-26T10:34:20.520Z,11.32
2022-12-26T10:36:52.437Z,7.75
2022-12-26T10:39:57.765Z,6.32
2022-12-26T10:42:31.455Z,5.38
2022-12-26T10:44:58.684Z,5.75
2022-12-26T10:47:29.822Z,5.55
2022-12-26T10:50:00.012Z,4.60
2022-12-26T10:52:46.207Z,5.25
2022-12-26T10:55:28.942Z,5.05
2022-12-26T10:58:00.574Z,6.40
2022-12-26T11:00:28.610Z,4.80
2022-12-26T11:03:15.576Z,5.70
2022-12-26T11:06:08.137Z,6.25
2022-12-26T11:08:44.304Z,4.63
2022-12-26T11:13:51.501Z,4.75
2022-12-26T11:16:29.635Z,4.43
2022-12-26T11:18:56.817Z,5.18
2022-12-26T11:21:29.054Z,5.53
2022-12-26T11:24:19.519Z,3.72
2022-12-26T11:26:46.624Z,3.38
2022-12-26T11:29:21.814Z,3.88
2022-12-26T11:31:58.208Z,3.90
2022-12-26T11:34:38.259Z,3.55
2022-12-26T11:37:06.070Z,4.85
2022-12-26T11:39:37.528Z,5.20
2022-12-26T11:42:22.132Z,4.28
2022-12-26T11:44:52.679Z,3.75
2022-12-26T11:47:25.814Z,4.70
2022-12-26T11:50:07.593Z,2.60
2022-12-26T11:52:37.424Z,3.63
2022-12-26T11:55:25.134Z,4.25
2022-12-26T11:58:10.102Z,3.40
2022-12-26T12:00:40.840Z,3.13
2022-12-26T12:03:17.788Z,2.75
2022-12-26T12:06:11.794Z,3.47
2022-12-26T12:08:41.403Z,2.75
2022-12-26T12:11:29.577Z,3.97
2022-12-26T12:14:15.432Z,2.72
2022-12-26T12:17:13.331Z,2.97
2022-12-26T12:19:47.491Z,3.03
2022-12-26T12:22:36.208Z,3.22
2022-12-26T12:25:30.544Z,23.40
2022-12-26T12:28:00.402Z,3.85
2022-12-26T12:30:51.014Z,3.75
2022-12-26T12:33:24.667Z,3.97
2022-12-26T12:35:57.805Z,3.80
2022-12-26T12:39:03.306Z,3.83
2022-12-26T12:41:52.085Z,4.90
2022-12-26T12:44:19.650Z,4.22
2022-12-26T12:47:05.053Z,5.80
2022-12-26T12:49:42.883Z,4.00
2022-12-26T12:52:31.474Z,8.55
2022-12-26T12:55:07.021Z,9.23
2022-12-26T12:57:52.402Z,6.57
2022-12-26T13:00:21.939Z,6.00
2022-12-26T13:02:59.872Z,4.47
2022-12-26T13:05:36.232Z,5.13
2022-12-26T13:08:08.638Z,9.75
2022-12-26T13:10:38.439Z,5.47
2022-12-26T13:13:25.645Z,6.68
2022-12-26T13:15:58.526Z,5.82
2022-12-26T13:18:29.496Z,7.15
2022-12-26T13:20:59.720Z,8.27
2022-12-26T13:24:06.256Z,7.45
2022-12-26T13:26:39.206Z,8.27
2022-12-26T13:29:29.722Z,7.80
2022-12-26T13:31:58.555Z,7.68
2022-12-26T13:34:25.591Z,7.97
2022-12-26T13:36:57.620Z,8.15
2022-12-26T13:39:27.125Z,7.15
2022-12-26T13:42:41.217Z,6.47
2022-12-26T13:45:42.944Z,7.90
2022-12-26T13:48:12.677Z,7.82
2022-12-26T13:50:49.921Z,8.10
2022-12-26T13:53:25.922Z,8.43
2022-12-26T13:55:58.846Z,6.85
2022-12-26T13:58:34.626Z,8.90
2022-12-26T14:01:21.591Z,10.65
2022-12-26T14:04:09.956Z,7.93
2022-12-26T14:06:55.797Z,8.45
2022-12-26T14:09:37.429Z,9.75
2022-12-26T14:12:19.469Z,9.25
2022-12-26T14:14:54.638Z,8.30
2022-12-26T14:20:35.648Z,10.13
2022-12-26T14:23:29.920Z,8.27
2022-12-26T14:26:13.313Z,9.00
2022-12-26T14:28:58.542Z,8.38
2022-12-26T14:31:47.049Z,23.58
2022-12-26T14:34:25.616Z,11.75
2022-12-26T14:37:15.901Z,10.18
2022-12-26T14:40:07.493Z,10.77
2022-12-26T14:43:12.634Z,10.30
2022-12-26T14:45:53.173Z,10.40
2022-12-26T14:48:19.884Z,10.27
2022-12-26T14:50:48.043Z,10.85
2022-12-26T14:53:20.779Z,15.27
2022-12-26T14:55:54.685Z,11.70
2022-12-26T14:58:21.278Z,14.88
2022-12-26T15:00:48.914Z,19.33
2022-12-26T15:03:18.501Z,15.57
2022-12-26T15:05:47.397Z,22.33
2022-12-26T15:08:34.447Z,14.85
2022-12-26T15:11:13.159Z,13.98
2022-12-26T15:14:06.208Z,11.80
2022-12-26T15:16:39.582Z,12.13
2022-12-26T15:19:44.744Z,12.75
2022-12-26T15:22:53.288Z,12.15
2022-12-26T15:25:25.582Z,13.77
2022-12-26T15:27:59.398Z,13.27
2022-12-26T15:31:05.957Z,12.27
2022-12-26T15:33:41.047Z,15.85
2022-12-26T15:36:20.680Z,15.27
2022-12-26T15:38:58.671Z,16.08
2022-12-26T15:41:50.375Z,20.00
2022-12-26T15:44:16.957Z,15.77
2022-12-26T15:47:02.122Z,16.80
2022-12-26T15:49:48.487Z,18.38
2022-12-26T15:52:33.974Z,18.02
2022-12-26T15:55:20.877Z,22.13
2022-12-26T15:57:53.022Z,16.25
2022-12-26T16:00:24.838Z,20.05
2022-12-26T16:03:16.528Z,18.98
2022-12-26T16:05:51.678Z,20.70
2022-12-26T16:08:49.300Z,23.80
2022-12-26T16:11:20.931Z,22.88
2022-12-26T16:13:55.348Z,24.27
2022-12-26T16:16:32.551Z,27.20
2022-12-26T16:19:15.658Z,29.02
2022-12-26T16:22:03.396Z,26.83
2022-12-26T16:24:30.233Z,20.60
2022-12-26T16:27:02.051Z,22.20
2022-12-26T16:29:30.301Z,20.65
2022-12-26T16:32:07.072Z,20.00
2022-12-26T16:34:36.980Z,16.35
2022-12-26T16:37:03.808Z,18.52
2022-12-26T16:39:30.480Z,20.90
2022-12-26T16:42:06.316Z,18.23
2022-12-26T16:44:37.572Z,16.05
2022-12-26T16:47:12.066Z,14.63
2022-12-26T16:49:41.753Z,15.60
2022-12-26T16:52:45.852Z,15.65
2022-12-26T16:55:30.801Z,16.90
2022-12-26T16:58:00.033Z,13.85
2022-12-26T17:00:27.392Z,14.32
2022-12-26T17:02:58.037Z,13.45
2022-12-26T17:05:30.352Z,15.80
2022-12-26T17:08:00.249Z,13.10
2022-12-26T17:10:33.244Z,13.57
2022-12-26T17:13:03.016Z,14.48
2022-12-26T17:15:37.730Z,15.05
2022-12-26T17:18:29.130Z,12.25
2022-12-26T17:20:56.348Z,18.52
2022-12-26T17:23:36.263Z,16.27
2022-12-26T17:26:21.169Z,15.88
2022-12-26T17:28:47.979Z,14.02
2022-12-26T17:31:34.451Z,14.48
2022-12-26T17:34:05.508Z,15.05
2022-12-26T17:39:20.965Z,12.27
2022-12-26T17:42:01.126Z,12.40
2022-12-26T17:44:35.968Z,12.40
2022-12-26T17:47:11.186Z,12.48
2022-12-26T17:49:37.855Z,14.23
2022-12-26T17:52:04.878Z,14.60
2022-12-26T17:54:31.602Z,13.43
2022-12-26T17:56:58.453Z,13.48
2022-12-26T17:59:25.142Z,13.02
2022-12-26T18:01:51.902Z,12.48
2022-12-26T18:04:18.719Z,16.30
2022-12-26T18:06:45.362Z,12.98
2022-12-26T18:09:24.555Z,14.27
2022-12-26T18:11:51.306Z,14.35
2022-12-26T18:14:18.099Z,13.38
2022-12-26T18:16:45.001Z,15.15
2022-12-26T18:19:16.408Z,13.27
2022-12-26T18:21:43.170Z,21.88
2022-12-26T18:24:09.879Z,15.60
2022-12-26T18:26:36.971Z,16.92
2022-12-26T18:29:04.013Z,17.70
2022-12-26T18:31:31.642Z,24.25
2022-12-26T18:33:58.404Z,16.70
2022-12-26T18:36:30.592Z,16.95
2022-12-26T18:38:57.369Z,15.88
2022-12-26T18:41:24.112Z,19.00
2022-12-26T18:43:50.844Z,18.52
2022-12-26T18:46:17.966Z,16.40
2022-12-26T18:48:45.207Z,15.45
2022-12-26T18:51:12.435Z,13.00
2022-12-26T18:53:39.310Z,17.85
2022-12-26T18:56:06.523Z,17.60
2022-12-26T18:58:33.250Z,19.67
2022-12-26T19:01:02.909Z,20.75
2022-12-26T19:03:29.752Z,18.27
2022-12-26T19:05:56.486Z,21.50
2022-12-26T19:08:23.149Z,23.35
2022-12-26T19:10:49.826Z,19.00
2022-12-26T19:13:16.555Z,21.48
2022-12-26T19:15:47.345Z,21.88
2022-12-26T19:18:14.086Z,18.30
2022-12-26T19:20:44.378Z,20.95
2022-12-26T19:23:11.658Z,19.98
2022-12-26T19:25:38.367Z,19.77
2022-12-26T19:28:05.118Z,21.13
2022-12-26T19:30:38.251Z,23.60
2022-12-26T19:33:05.632Z,23.13
2022-12-26T19:35:32.353Z,21.70
2022-12-26T19:37:59.314Z,21.85
2022-12-26T19:40:26.283Z,22.30
2022-12-26T19:42:53.472Z,22.42
2022-12-26T19:45:20.385Z,22.88
2022-12-26T19:47:47.126Z,20.10
2022-12-26T19:50:14.126Z,19.55
2022-12-26T19:52:41.429Z,20.65
2022-12-26T19:55:11.472Z,18.23
2022-12-26T19:57:38.200Z,19.17
2022-12-26T20:00:06.359Z,19.88
2022-12-26T20:02:33.138Z,20.25
2022-12-26T20:04:59.919Z,35.60
2022-12-26T20:07:26.605Z,28.08
2022-12-26T20:09:53.353Z,21.80
2022-12-26T20:12:20.181Z,20.25
2022-12-26T20:14:46.853Z,23.55
2022-12-26T20:17:13.714Z,25.20
2022-12-26T20:19:40.722Z,23.17
2022-12-26T20:22:07.964Z,25.23
2022-12-26T20:24:35.041Z,27.63
2022-12-26T20:27:02.735Z,30.40
2022-12-26T20:29:32.873Z,40.65
2022-12-26T20:31:59.755Z,41.60
2022-12-26T20:34:26.666Z,40.30
2022-12-26T20:36:53.634Z,41.55
2022-12-26T20:39:21.562Z,55.17
2022-12-26T20:41:48.711Z,42.28
2022-12-26T20:44:16.675Z,43.15
2022-12-26T20:46:44.451Z,42.22
2022-12-26T20:49:11.905Z,42.67
2022-12-26T20:51:40.246Z,42.17
2022-12-26T20:54:08.356Z,42.55
2022-12-26T20:56:35.801Z,43.90
2022-12-26T20:59:03.404Z,43.40
2022-12-26T21:01:30.627Z,42.67
2022-12-26T21:03:58.042Z,43.97
2022-12-26T21:06:36.061Z,40.30
2022-12-26T21:09:04.112Z,35.72
2022-12-26T21:11:33.263Z,33.10
2022-12-26T21:14:02.990Z,34.50
2022-12-26T21:16:35.617Z,35.30
2022-12-26T21:19:03.320Z,35.10
2022-12-26T21:21:35.909Z,35.28
2022-12-26T21:24:10.661Z,33.53
2022-12-26T21:26:39.096Z,34.33
2022-12-26T21:29:07.773Z,36.28
2022-12-26T21:31:35.270Z,31.90
2022-12-26T21:34:03.517Z,31.88
2022-12-26T21:36:30.511Z,30.20
2022-12-26T21:38:58.060Z,30.55
2022-12-26T21:41:25.571Z,28.77
2022-12-26T21:43:55.775Z,29.35
2022-12-26T21:46:22.572Z,29.77
2022-12-26T21:48:50.277Z,30.17
2022-12-26T21:51:18.427Z,29.13
2022-12-26T21:53:45.286Z,31.80
2022-12-26T21:56:13.227Z,33.60
2022-12-26T21:58:59.301Z,32.20
2022-12-26T22:01:27.127Z,32.25
2022-12-26T22:04:12.967Z,31.98
2022-12-26T22:06:40.502Z,31.58
2022-12-26T22:09:08.448Z,32.80
2022-12-26T22:11:54.054Z,30.02
2022-12-26T22:14:21.269Z,32.72
2022-12-26T22:16:52.050Z,34.65
2022-12-26T22:19:19.778Z,33.80
2022-12-26T22:21:46.805Z,34.55
2022-12-26T22:24:15.021Z,35.65
2022-12-26T22:26:41.923Z,35.72
2022-12-26T22:29:08.956Z,35.20
2022-12-26T22:31:37.322Z,35.78
2022-12-26T22:34:06.913Z,37.25
2022-12-26T22:39:03.344Z,34.58
2022-12-26T22:41:30.088Z,36.10
2022-12-26T22:43:56.945Z,38.00
2022-12-26T22:46:23.999Z,41.33
2022-12-26T22:48:51.159Z,43.15
2022-12-26T22:51:20.407Z,39.47
2022-12-26T22:53:47.421Z,41.03
2022-12-26T22:56:14.132Z,39.75
2022-12-26T22:58:43.165Z,34.85
2022-12-26T23:01:17.746Z,34.95
2022-12-26T23:03:44.689Z,35.17
2022-12-26T23:06:30.167Z,40.58
2022-12-26T23:08:58.472Z,40.65
2022-12-26T23:11:34.102Z,38.00
2022-12-26T23:14:02.243Z,39.40
2022-12-26T23:16:45.590Z,39.33
2022-12-26T23:19:34.945Z,42.72
2022-12-26T23:22:02.403Z,39.40
2022-12-26T23:24:30.678Z,39.20
2022-12-26T23:27:26.503Z,37.03
2022-12-26T23:30:12.723Z,33.83
2022-12-26T23:32:41.155Z,32.97
2022-12-26T23:35:09.631Z,30.98
2022-12-26T23:37:37.363Z,30.98
2022-12-26T23:40:05.013Z,28.70
2022-12-26T23:42:31.749Z,28.02
2022-12-26T23:44:58.415Z,27.25
2022-12-26T23:47:25.095Z,28.23
2022-12-26T23:49:51.779Z,25.15
2022-12-26T23:52:19.776Z,25.90
2022-12-26T23:54:46.493Z,26.15
2022-12-26T23:57:13.334Z,26.23
2022-12-26T23:59:39.990Z,24.83
